Terminal Aerodrome Forecast
Issued by NWS

Home | Current Version | Previous Version | Text Only | Print | Product List | Glossary On
Versions: 1 2 3 4 5 6 7 8 9 10
000
FTUS46 KPDT 261700
TAFYKM
TAF
KYKM 261736Z 2618/2718 12005KT P6SM BKN090
     FM262200 14006KT P6SM VCSH SCT045 BKN090
     FM270400 27005KT P6SM VCSH BKN045 OVC090
     FM270900 25005KT P6SM -SHRA BKN025 OVC050=

USA.gov is the U.S. government's official web portal to all federal, state and local government web resources and services.